createdAt,value
2023-04-17T00:01:17.942Z,6.17
2023-04-17T00:07:25.688Z,5.57
2023-04-17T00:13:30.643Z,6.00
2023-04-17T00:19:41.428Z,5.57
2023-04-17T00:25:54.049Z,5.20
2023-04-17T00:32:23.175Z,9.07
2023-04-17T00:39:00.552Z,9.03
2023-04-17T00:45:03.287Z,7.17
2023-04-17T00:51:22.024Z,8.57
2023-04-17T01:04:03.324Z,7.47
2023-04-17T01:10:15.479Z,10.50
2023-04-17T01:16:19.003Z,7.47
2023-04-17T01:22:21.457Z,6.30
2023-04-17T01:28:41.153Z,5.73
2023-04-17T01:34:50.730Z,6.37
2023-04-17T01:40:57.044Z,8.70
2023-04-17T01:47:41.262Z,7.00
2023-04-17T01:53:58.154Z,5.13
2023-04-17T02:00:02.340Z,5.93
2023-04-17T02:06:14.183Z,6.00
2023-04-17T02:12:45.230Z,5.37
2023-04-17T02:19:08.175Z,5.93
2023-04-17T02:31:44.664Z,5.70
2023-04-17T02:37:54.985Z,5.20
2023-04-17T02:44:15.601Z,5.80
2023-04-17T02:50:42.301Z,5.30
2023-04-17T02:57:08.314Z,4.53
2023-04-17T03:10:58.682Z,5.53
2023-04-17T03:30:49.786Z,6.03
2023-04-17T03:37:28.016Z,6.17
2023-04-17T03:43:30.888Z,6.00
2023-04-17T03:49:52.502Z,5.50
2023-04-17T03:55:55.934Z,5.07
2023-04-17T04:02:14.939Z,5.60
2023-04-17T04:09:40.086Z,4.93
2023-04-17T04:16:14.792Z,4.70
2023-04-17T04:22:41.036Z,5.03
2023-04-17T04:35:21.698Z,4.57
2023-04-17T04:41:38.158Z,4.30
2023-04-17T04:47:49.886Z,4.20
2023-04-17T04:54:00.379Z,4.73
2023-04-17T05:00:18.803Z,4.07
2023-04-17T05:06:32.101Z,5.43
2023-04-17T05:13:27.024Z,3.87
2023-04-17T05:19:32.336Z,4.37
2023-04-17T05:25:39.744Z,13.93
2023-04-17T05:38:28.936Z,4.93
2023-04-17T06:05:13.716Z,3.87
2023-04-17T06:11:30.017Z,5.03
2023-04-17T06:18:08.597Z,6.30
2023-04-17T06:25:05.810Z,4.57
2023-04-17T06:44:28.545Z,4.40
2023-04-17T06:50:36.680Z,3.53
2023-04-17T06:56:38.913Z,3.53
2023-04-17T07:03:31.208Z,3.93
2023-04-17T07:17:00.226Z,4.00
2023-04-17T07:23:19.959Z,3.83
2023-04-17T07:33:17.704Z,4.67
2023-04-17T07:36:13.222Z,3.97
2023-04-17T07:42:18.042Z,4.87
2023-04-17T07:49:12.200Z,2.97
2023-04-17T07:55:32.539Z,3.53
2023-04-17T08:16:57.661Z,4.00
2023-04-17T08:31:10.356Z,4.80
2023-04-17T08:44:01.450Z,6.40
2023-04-17T08:58:13.529Z,4.80
2023-04-17T09:05:11.846Z,5.27
2023-04-17T09:11:55.292Z,5.07
2023-04-17T09:18:43.223Z,4.60
2023-04-17T09:24:53.361Z,5.30
2023-04-17T09:31:11.262Z,4.70
2023-04-17T09:58:37.154Z,5.57
2023-04-17T10:04:59.430Z,4.73
2023-04-17T10:11:46.508Z,5.27
2023-04-17T10:18:07.097Z,4.70
2023-04-17T10:24:41.822Z,5.10
2023-04-17T10:31:10.352Z,4.73
2023-04-17T10:37:22.928Z,4.73
2023-04-17T10:50:48.345Z,4.93
2023-04-17T10:57:23.658Z,5.23
2023-04-17T11:04:26.370Z,5.33
2023-04-17T11:10:35.216Z,4.80
2023-04-17T11:23:44.355Z,5.13
2023-04-17T11:29:56.334Z,4.87
2023-04-17T11:36:10.496Z,4.53
2023-04-17T14:00:33.872Z,4.23
2023-04-17T14:20:40.814Z,4.97
2023-04-17T14:41:01.932Z,5.33
2023-04-17T15:21:01.225Z,4.00
2023-04-17T15:27:06.742Z,4.80
2023-04-17T15:33:58.648Z,3.80
2023-04-17T15:41:12.246Z,4.10
2023-04-17T15:47:17.630Z,4.43
2023-04-17T15:53:28.965Z,9.87
2023-04-17T15:59:58.665Z,8.83
2023-04-17T16:06:20.282Z,7.63
2023-04-17T16:19:50.118Z,4.70
2023-04-17T16:27:12.151Z,4.20
2023-04-17T16:33:43.209Z,4.47
2023-04-17T16:40:30.745Z,5.00
2023-04-17T16:54:02.853Z,4.50
2023-04-17T17:14:12.532Z,4.47
2023-04-17T17:20:15.424Z,5.30
2023-04-17T17:26:26.804Z,5.03
2023-04-17T17:32:35.224Z,4.40
2023-04-17T17:38:37.937Z,4.20
2023-04-17T17:44:49.329Z,4.67
2023-04-17T17:50:55.972Z,6.53
2023-04-17T17:56:59.401Z,9.13
2023-04-17T18:03:05.008Z,10.47
2023-04-17T18:09:07.293Z,8.63
2023-04-17T18:15:17.892Z,9.17
2023-04-17T18:21:31.366Z,8.73
2023-04-17T18:27:36.871Z,7.53
2023-04-17T18:33:38.743Z,8.97
2023-04-17T18:39:48.188Z,8.73
2023-04-17T18:45:50.291Z,8.80
2023-04-17T18:51:54.964Z,8.33
2023-04-17T18:58:05.246Z,8.57
2023-04-17T19:04:07.760Z,7.23
2023-04-17T19:10:14.024Z,12.53
2023-04-17T19:16:18.743Z,11.27
2023-04-17T19:22:21.173Z,10.97
2023-04-17T19:28:29.696Z,10.07
2023-04-17T19:34:32.135Z,11.67
2023-04-17T19:40:34.590Z,10.60
2023-04-17T19:46:37.054Z,8.17
2023-04-17T19:52:39.524Z,8.70
2023-04-17T19:58:43.001Z,7.53
2023-04-17T20:04:46.450Z,7.13
2023-04-17T20:10:48.912Z,8.23
2023-04-17T20:16:51.479Z,8.60
2023-04-17T20:22:53.878Z,7.07
2023-04-17T20:29:05.415Z,7.03
2023-04-17T20:35:07.961Z,6.80
2023-04-17T20:41:11.513Z,6.70
2023-04-17T20:47:16.599Z,6.77
2023-04-17T20:53:19.339Z,5.93
2023-04-17T20:59:21.825Z,5.73
2023-04-17T21:05:26.763Z,5.40
2023-04-17T21:11:29.829Z,6.47
2023-04-17T21:17:34.302Z,6.60
2023-04-17T21:23:38.094Z,5.13
2023-04-17T21:29:42.216Z,5.30
2023-04-17T21:35:59.988Z,5.93
2023-04-17T21:42:08.067Z,5.03
2023-04-17T21:48:22.981Z,5.10
2023-04-17T21:54:27.878Z,5.33
2023-04-17T22:00:43.918Z,5.03
2023-04-17T22:06:46.242Z,5.40
2023-04-17T22:13:04.780Z,5.60
2023-04-17T22:19:11.288Z,5.93
2023-04-17T22:25:18.810Z,5.40
2023-04-17T22:31:25.451Z,5.57
2023-04-17T22:37:33.722Z,5.40
2023-04-17T22:43:45.253Z,5.77
2023-04-17T22:49:50.763Z,5.40
2023-04-17T22:56:11.258Z,5.70
2023-04-17T23:02:23.648Z,5.40
2023-04-17T23:08:43.514Z,5.73
2023-04-17T23:15:02.787Z,5.70
2023-04-17T23:21:11.397Z,6.33
2023-04-17T23:27:22.877Z,5.30
2023-04-17T23:33:28.373Z,5.97
2023-04-17T23:39:30.922Z,5.77
2023-04-17T23:45:54.451Z,6.17
2023-04-17T23:52:00.136Z,6.83
2023-04-17T23:58:03.973Z,10.80
